sensor_id;sensor_type;location;lat;lon;timestamp;pressure;altitude;pressure_sealevel;temperature;humidity
54600;BME280;40500;51.084;16.958;2023-02-19T00:00:23;100103.69;;;5.95;100.00
54600;BME280;40500;51.084;16.958;2023-02-19T00:02:54;100101.94;;;5.93;100.00
54600;BME280;40500;51.084;16.958;2023-02-19T00:05:26;100102.99;;;5.92;100.00
54600;BME280;40500;51.084;16.958;2023-02-19T00:07:59;100101.61;;;5.92;100.00
54600;BME280;40500;51.084;16.958;2023-02-19T00:10:29;100104.20;;;5.91;100.00
54600;BME280;40500;51.084;16.958;2023-02-19T00:13:00;100102.13;;;5.92;100.00
54600;BME280;40500;51.084;16.958;2023-02-19T00:15:32;100101.95;;;5.92;100.00
54600;BME280;40500;51.084;16.958;2023-02-19T00:18:04;100102.11;;;5.93;100.00
54600;BME280;40500;51.084;16.958;2023-02-19T00:20:36;100101.94;;;5.93;100.00
54600;BME280;40500;51.084;16.958;2023-02-19T00:23:06;100101.41;;;5.93;100.00
54600;BME280;40500;51.084;16.958;2023-02-19T00:25:38;100098.12;;;5.93;100.00
54600;BME280;40500;51.084;16.958;2023-02-19T00:28:10;100098.48;;;5.93;100.00
54600;BME280;40500;51.084;16.958;2023-02-19T00:30:40;100096.04;;;5.92;100.00
54600;BME280;40500;51.084;16.958;2023-02-19T00:33:13;100090.30;;;5.93;100.00
54600;BME280;40500;51.084;16.958;2023-02-19T00:35:45;100085.27;;;5.91;100.00
54600;BME280;40500;51.084;16.958;2023-02-19T00:38:16;100085.26;;;5.90;100.00
54600;BME280;40500;51.084;16.958;2023-02-19T00:40:47;100088.39;;;5.89;100.00
54600;BME280;40500;51.084;16.958;2023-02-19T00:43:18;100094.83;;;5.89;100.00
54600;BME280;40500;51.084;16.958;2023-02-19T00:45:54;100093.96;;;5.88;100.00
54600;BME280;40500;51.084;16.958;2023-02-19T00:48:25;100089.62;;;5.87;100.00
54600;BME280;40500;51.084;16.958;2023-02-19T00:50:56;100090.66;;;5.86;100.00
54600;BME280;40500;51.084;16.958;2023-02-19T00:53:26;100085.80;;;5.82;100.00
54600;BME280;40500;51.084;16.958;2023-02-19T00:55:57;100079.39;;;5.81;100.00
54600;BME280;40500;51.084;16.958;2023-02-19T00:58:27;100079.89;;;5.78;100.00
54600;BME280;40500;51.084;16.958;2023-02-19T01:01:01;100073.47;;;5.79;100.00
54600;BME280;40500;51.084;16.958;2023-02-19T01:03:35;100070.34;;;5.79;100.00
54600;BME280;40500;51.084;16.958;2023-02-19T01:06:08;100066.86;;;5.78;100.00
54600;BME280;40500;51.084;16.958;2023-02-19T01:08:40;100062.88;;;5.76;100.00
54600;BME280;40500;51.084;16.958;2023-02-19T01:11:12;100058.02;;;5.75;100.00
54600;BME280;40500;51.084;16.958;2023-02-19T01:13:45;100052.45;;;5.74;100.00
54600;BME280;40500;51.084;16.958;2023-02-19T01:16:18;100052.81;;;5.72;100.00
54600;BME280;40500;51.084;16.958;2023-02-19T01:18:50;100048.99;;;5.68;100.00
54600;BME280;40500;51.084;16.958;2023-02-19T01:21:25;100049.86;;;5.66;100.00
54600;BME280;40500;51.084;16.958;2023-02-19T01:23:56;100054.22;;;5.63;100.00
54600;BME280;40500;51.084;16.958;2023-02-19T01:26:29;100051.79;;;5.61;100.00
54600;BME280;40500;51.084;16.958;2023-02-19T01:29:01;100047.44;;;5.59;100.00
54600;BME280;40500;51.084;16.958;2023-02-19T01:31:32;100046.92;;;5.58;100.00
54600;BME280;40500;51.084;16.958;2023-02-19T01:34:07;100041.19;;;5.57;100.00
54600;BME280;40500;51.084;16.958;2023-02-19T01:36:39;100039.80;;;5.55;100.00
54600;BME280;40500;51.084;16.958;2023-02-19T01:39:17;100037.89;;;5.55;100.00
54600;BME280;40500;51.084;16.958;2023-02-19T01:41:48;100044.49;;;5.54;100.00
54600;BME280;40500;51.084;16.958;2023-02-19T01:47:24;100041.19;;;5.54;100.00
54600;BME280;40500;51.084;16.958;2023-02-19T01:49:57;100037.38;;;5.55;100.00
54600;BME280;40500;51.084;16.958;2023-02-19T01:52:30;100029.91;;;5.55;100.00
54600;BME280;40500;51.084;16.958;2023-02-19T01:55:03;100016.19;;;5.55;100.00
54600;BME280;40500;51.084;16.958;2023-02-19T01:57:42;100010.80;;;5.55;100.00
54600;BME280;40500;51.084;16.958;2023-02-19T02:00:18;100007.66;;;5.55;100.00
54600;BME280;40500;51.084;16.958;2023-02-19T02:02:56;100006.98;;;5.57;100.00
54600;BME280;40500;51.084;16.958;2023-02-19T02:05:36;99997.25;;;5.58;100.00
54600;BME280;40500;51.084;16.958;2023-02-19T02:08:13;99996.39;;;5.56;100.00
54600;BME280;40500;51.084;16.958;2023-02-19T02:11:02;99991.70;;;5.56;100.00
54600;BME280;40500;51.084;16.958;2023-02-19T02:13:35;99987.34;;;5.56;100.00
54600;BME280;40500;51.084;16.958;2023-02-19T02:16:19;99992.04;;;5.58;100.00
54600;BME280;40500;51.084;16.958;2023-02-19T02:19:00;99977.10;;;5.59;100.00
54600;BME280;40500;51.084;16.958;2023-02-19T02:21:54;99977.64;;;5.58;100.00
54600;BME280;40500;51.084;16.958;2023-02-19T02:27:40;99965.98;;;5.61;100.00
54600;BME280;40500;51.084;16.958;2023-02-19T02:30:25;99962.84;;;5.63;100.00
54600;BME280;40500;51.084;16.958;2023-02-19T02:33:03;99963.37;;;5.65;100.00
54600;BME280;40500;51.084;16.958;2023-02-19T02:35:41;99964.58;;;5.67;100.00
54600;BME280;40500;51.084;16.958;2023-02-19T02:38:15;99969.60;;;5.68;100.00
54600;BME280;40500;51.084;16.958;2023-02-19T02:40:48;99968.74;;;5.67;100.00
54600;BME280;40500;51.084;16.958;2023-02-19T02:43:19;99968.22;;;5.67;100.00
54600;BME280;40500;51.084;16.958;2023-02-19T02:45:50;99966.31;;;5.67;100.00
54600;BME280;40500;51.084;16.958;2023-02-19T02:48:36;99959.02;;;5.65;100.00
54600;BME280;40500;51.084;16.958;2023-02-19T02:51:17;99956.07;;;5.65;100.00
54600;BME280;40500;51.084;16.958;2023-02-19T02:54:02;99957.46;;;5.65;100.00
54600;BME280;40500;51.084;16.958;2023-02-19T02:56:53;99955.73;;;5.64;100.00
54600;BME280;40500;51.084;16.958;2023-02-19T02:59:26;99950.87;;;5.63;100.00
54600;BME280;40500;51.084;16.958;2023-02-19T03:02:01;99951.55;;;5.64;100.00
54600;BME280;40500;51.084;16.958;2023-02-19T03:04:50;99954.33;;;5.66;100.00
54600;BME280;40500;51.084;16.958;2023-02-19T03:07:50;99950.50;;;5.66;100.00
54600;BME280;40500;51.084;16.958;2023-02-19T03:10:27;99947.90;;;5.64;100.00
54600;BME280;40500;51.084;16.958;2023-02-19T03:13:02;99945.64;;;5.65;100.00
54600;BME280;40500;51.084;16.958;2023-02-19T03:15:57;99944.60;;;5.66;100.00
54600;BME280;40500;51.084;16.958;2023-02-19T03:18:47;99942.86;;;5.66;100.00
54600;BME280;40500;51.084;16.958;2023-02-19T03:21:38;99942.35;;;5.65;100.00
54600;BME280;40500;51.084;16.958;2023-02-19T03:24:12;99944.08;;;5.66;100.00
54600;BME280;40500;51.084;16.958;2023-02-19T03:27:04;99946.67;;;5.66;100.00
54600;BME280;40500;51.084;16.958;2023-02-19T03:29:41;99937.80;;;5.68;100.00
54600;BME280;40500;51.084;16.958;2023-02-19T03:32:16;99936.42;;;5.69;100.00
54600;BME280;40500;51.084;16.958;2023-02-19T03:34:54;99925.83;;;5.71;100.00
54600;BME280;40500;51.084;16.958;2023-02-19T03:37:29;99911.05;;;5.71;100.00
54600;BME280;40500;51.084;16.958;2023-02-19T03:40:02;99907.23;;;5.70;100.00
54600;BME280;40500;51.084;16.958;2023-02-19T03:42:37;99907.41;;;5.68;100.00
54600;BME280;40500;51.084;16.958;2023-02-19T03:45:32;99898.40;;;5.65;100.00
54600;BME280;40500;51.084;16.958;2023-02-19T03:48:19;99903.63;;;5.64;100.00
54600;BME280;40500;51.084;16.958;2023-02-19T03:51:01;99901.19;;;5.62;100.00
54600;BME280;40500;51.084;16.958;2023-02-19T03:53:39;99902.41;;;5.63;100.00
54600;BME280;40500;51.084;16.958;2023-02-19T03:56:21;99904.65;;;5.65;100.00
54600;BME280;40500;51.084;16.958;2023-02-19T03:58:57;99911.44;;;5.63;100.00
54600;BME280;40500;51.084;16.958;2023-02-19T04:01:38;99913.88;;;5.63;100.00
54600;BME280;40500;51.084;16.958;2023-02-19T04:04:17;99916.83;;;5.63;100.00
54600;BME280;40500;51.084;16.958;2023-02-19T04:06:51;99909.88;;;5.63;100.00
54600;BME280;40500;51.084;16.958;2023-02-19T04:09:28;99905.86;;;5.64;100.00
54600;BME280;40500;51.084;16.958;2023-02-19T04:12:05;99905.52;;;5.65;100.00
54600;BME280;40500;51.084;16.958;2023-02-19T04:14:40;99902.20;;;5.66;100.00
54600;BME280;40500;51.084;16.958;2023-02-19T04:17:18;99906.36;;;5.68;100.00
54600;BME280;40500;51.084;16.958;2023-02-19T04:19:50;99907.59;;;5.68;100.00
54600;BME280;40500;51.084;16.958;2023-02-19T04:22:22;99903.24;;;5.68;100.00
54600;BME280;40500;51.084;16.958;2023-02-19T04:24:55;99910.37;;;5.68;100.00
54600;BME280;40500;51.084;16.958;2023-02-19T04:27:26;99905.67;;;5.68;100.00
54600;BME280;40500;51.084;16.958;2023-02-19T04:30:02;99903.77;;;5.68;100.00
54600;BME280;40500;51.084;16.958;2023-02-19T04:32:34;99900.99;;;5.68;100.00
54600;BME280;40500;51.084;16.958;2023-02-19T04:35:07;99901.34;;;5.68;100.00
54600;BME280;40500;51.084;16.958;2023-02-19T04:37:37;99906.20;;;5.67;100.00
54600;BME280;40500;51.084;16.958;2023-02-19T04:40:09;99900.65;;;5.67;100.00
54600;BME280;40500;51.084;16.958;2023-02-19T04:42:40;99896.30;;;5.66;100.00
54600;BME280;40500;51.084;16.958;2023-02-19T04:45:12;99895.95;;;5.67;100.00
54600;BME280;40500;51.084;16.958;2023-02-19T04:47:44;99895.95;;;5.68;100.00
54600;BME280;40500;51.084;16.958;2023-02-19T04:50:15;99891.80;;;5.65;100.00
54600;BME280;40500;51.084;16.958;2023-02-19T04:52:45;99893.36;;;5.65;100.00
54600;BME280;40500;51.084;16.958;2023-02-19T04:55:16;99887.80;;;5.66;100.00
54600;BME280;40500;51.084;16.958;2023-02-19T04:57:47;99884.50;;;5.65;100.00
54600;BME280;40500;51.084;16.958;2023-02-19T05:00:18;99883.11;;;5.65;100.00
54600;BME280;40500;51.084;16.958;2023-02-19T05:02:50;99879.30;;;5.66;100.00
54600;BME280;40500;51.084;16.958;2023-02-19T05:05:23;99879.11;;;5.65;100.00
54600;BME280;40500;51.084;16.958;2023-02-19T05:07:54;99874.09;;;5.63;100.00
54600;BME280;40500;51.084;16.958;2023-02-19T05:10:25;99878.44;;;5.62;100.00
54600;BME280;40500;51.084;16.958;2023-02-19T05:12:56;99874.63;;;5.61;100.00
54600;BME280;40500;51.084;16.958;2023-02-19T05:15:27;99876.19;;;5.61;100.00
54600;BME280;40500;51.084;16.958;2023-02-19T05:17:58;99876.36;;;5.61;100.00
54600;BME280;40500;51.084;16.958;2023-02-19T05:20:30;99866.64;;;5.61;100.00
54600;BME280;40500;51.084;16.958;2023-02-19T05:23:00;99869.42;;;5.61;100.00
54600;BME280;40500;51.084;16.958;2023-02-19T05:25:30;99871.31;;;5.60;100.00
54600;BME280;40500;51.084;16.958;2023-02-19T05:28:02;99870.98;;;5.60;100.00
54600;BME280;40500;51.084;16.958;2023-02-19T05:30:47;99867.85;;;5.59;100.00
54600;BME280;40500;51.084;16.958;2023-02-19T05:33:20;99867.50;;;5.59;100.00
54600;BME280;40500;51.084;16.958;2023-02-19T05:35:53;99860.73;;;5.58;100.00
54600;BME280;40500;51.084;16.958;2023-02-19T05:38:24;99857.27;;;5.56;100.00
54600;BME280;40500;51.084;16.958;2023-02-19T05:40:54;99857.09;;;5.55;100.00
54600;BME280;40500;51.084;16.958;2023-02-19T05:43:33;99856.23;;;5.55;100.00
54600;BME280;40500;51.084;16.958;2023-02-19T05:46:06;99857.98;;;5.54;100.00
54600;BME280;40500;51.084;16.958;2023-02-19T05:48:40;99860.74;;;5.54;100.00
54600;BME280;40500;51.084;16.958;2023-02-19T05:51:14;99857.27;;;5.53;100.00
54600;BME280;40500;51.084;16.958;2023-02-19T05:53:46;99857.98;;;5.52;100.00
54600;BME280;40500;51.084;16.958;2023-02-19T05:56:26;99857.11;;;5.51;100.00
54600;BME280;40500;51.084;16.958;2023-02-19T05:58:57;99856.59;;;5.50;100.00
54600;BME280;40500;51.084;16.958;2023-02-19T06:01:29;99858.69;;;5.48;100.00
54600;BME280;40500;51.084;16.958;2023-02-19T06:03:59;99854.17;;;5.48;100.00
54600;BME280;40500;51.084;16.958;2023-02-19T06:06:30;99856.27;;;5.47;100.00
54600;BME280;40500;51.084;16.958;2023-02-19T06:09:00;99859.02;;;5.48;100.00
54600;BME280;40500;51.084;16.958;2023-02-19T06:11:33;99861.80;;;5.48;100.00
54600;BME280;40500;51.084;16.958;2023-02-19T06:14:04;99857.30;;;5.47;100.00
54600;BME280;40500;51.084;16.958;2023-02-19T06:16:34;99863.91;;;5.47;100.00
54600;BME280;40500;51.084;16.958;2023-02-19T06:19:05;99859.90;;;5.47;100.00
54600;BME280;40500;51.084;16.958;2023-02-19T06:21:35;99865.98;;;5.47;100.00
54600;BME280;40500;51.084;16.958;2023-02-19T06:24:07;99862.52;;;5.46;100.00
54600;BME280;40500;51.084;16.958;2023-02-19T06:26:38;99866.86;;;5.45;100.00
54600;BME280;40500;51.084;16.958;2023-02-19T06:29:09;99872.60;;;5.45;100.00
54600;BME280;40500;51.084;16.958;2023-02-19T06:31:40;99874.51;;;5.43;100.00
54600;BME280;40500;51.084;16.958;2023-02-19T06:34:11;99879.03;;;5.43;100.00
54600;BME280;40500;51.084;16.958;2023-02-19T06:36:41;99875.73;;;5.42;100.00
54600;BME280;40500;51.084;16.958;2023-02-19T06:39:12;99875.90;;;5.41;100.00
54600;BME280;40500;51.084;16.958;2023-02-19T06:41:43;99877.29;;;5.42;100.00
54600;BME280;40500;51.084;16.958;2023-02-19T06:44:13;99880.60;;;5.40;100.00
54600;BME280;40500;51.084;16.958;2023-02-19T06:46:44;99882.86;;;5.41;100.00
54600;BME280;40500;51.084;16.958;2023-02-19T06:49:15;99885.64;;;5.40;100.00
54600;BME280;40500;51.084;16.958;2023-02-19T06:51:45;99884.25;;;5.39;100.00
54600;BME280;40500;51.084;16.958;2023-02-19T06:54:17;99885.99;;;5.38;100.00
54600;BME280;40500;51.084;16.958;2023-02-19T06:56:48;99882.16;;;5.38;100.00
54600;BME280;40500;51.084;16.958;2023-02-19T06:59:19;99883.91;;;5.38;100.00
54600;BME280;40500;51.084;16.958;2023-02-19T07:01:50;99886.86;;;5.36;100.00
54600;BME280;40500;51.084;16.958;2023-02-19T07:04:23;99893.11;;;5.33;100.00
54600;BME280;40500;51.084;16.958;2023-02-19T07:06:55;99901.11;;;5.32;100.00
54600;BME280;40500;51.084;16.958;2023-02-19T07:09:30;99902.68;;;5.28;100.00
54600;BME280;40500;51.084;16.958;2023-02-19T07:12:02;99909.29;;;5.24;100.00
54600;BME280;40500;51.084;16.958;2023-02-19T07:14:33;99921.95;;;5.23;100.00
54600;BME280;40500;51.084;16.958;2023-02-19T07:17:05;99923.70;;;5.20;100.00
54600;BME280;40500;51.084;16.958;2023-02-19T07:19:36;99929.61;;;5.13;100.00
54600;BME280;40500;51.084;16.958;2023-02-19T07:22:06;99938.30;;;5.07;100.00
54600;BME280;40500;51.084;16.958;2023-02-19T07:24:44;99939.18;;;4.96;100.00
54600;BME280;40500;51.084;16.958;2023-02-19T07:27:16;99942.83;;;4.87;100.00
54600;BME280;40500;51.084;16.958;2023-02-19T07:29:47;99944.03;;;4.74;100.00
54600;BME280;40500;51.084;16.958;2023-02-19T07:32:19;99949.05;;;4.69;100.00
54600;BME280;40500;51.084;16.958;2023-02-19T07:34:49;99956.16;;;4.61;100.00
54600;BME280;40500;51.084;16.958;2023-02-19T07:37:19;99957.02;;;4.56;100.00
54600;BME280;40500;51.084;16.958;2023-02-19T07:39:50;99958.75;;;4.48;100.00
54600;BME280;40500;51.084;16.958;2023-02-19T07:42:22;99963.08;;;4.45;100.00
54600;BME280;40500;51.084;16.958;2023-02-19T07:44:53;99963.94;;;4.40;100.00
54600;BME280;40500;51.084;16.958;2023-02-19T07:47:28;99972.07;;;4.33;100.00
54600;BME280;40500;51.084;16.958;2023-02-19T07:49:59;99977.79;;;4.30;100.00
54600;BME280;40500;51.084;16.958;2023-02-19T07:52:49;99985.74;;;4.27;100.00
54600;BME280;40500;51.084;16.958;2023-02-19T07:55:20;99996.13;;;4.23;100.00
54600;BME280;40500;51.084;16.958;2023-02-19T07:58:00;100000.45;;;4.21;100.00
54600;BME280;40500;51.084;16.958;2023-02-19T08:00:34;100008.42;;;4.19;100.00
54600;BME280;40500;51.084;16.958;2023-02-19T08:03:04;100011.34;;;4.16;100.00
54600;BME280;40500;51.084;16.958;2023-02-19T08:05:38;100013.40;;;4.09;100.00
54600;BME280;40500;51.084;16.958;2023-02-19T08:08:11;100011.62;;;3.99;100.00
54600;BME280;40500;51.084;16.958;2023-02-19T08:10:42;100024.75;;;3.89;100.00
54600;BME280;40500;51.084;16.958;2023-02-19T08:13:31;100024.02;;;3.82;100.00
54600;BME280;40500;51.084;16.958;2023-02-19T08:16:13;100027.46;;;3.79;100.00
54600;BME280;40500;51.084;16.958;2023-02-19T08:19:01;100036.58;;;3.70;100.00
54600;BME280;40500;51.084;16.958;2023-02-19T08:21:33;100040.89;;;3.64;100.00
54600;BME280;40500;51.084;16.958;2023-02-19T08:24:05;100047.08;;;3.58;100.00
54600;BME280;40500;51.084;16.958;2023-02-19T08:26:39;100053.95;;;3.53;100.00
54600;BME280;40500;51.084;16.958;2023-02-19T08:29:12;100056.50;;;3.44;100.00
54600;BME280;40500;51.084;16.958;2023-02-19T08:31:45;100064.58;;;3.38;100.00
54600;BME280;40500;51.084;16.958;2023-02-19T08:34:16;100067.31;;;3.34;100.00
54600;BME280;40500;51.084;16.958;2023-02-19T08:36:46;100071.09;;;3.31;100.00
54600;BME280;40500;51.084;16.958;2023-02-19T08:39:21;100076.11;;;3.30;100.00
54600;BME280;40500;51.084;16.958;2023-02-19T08:41:52;100077.50;;;3.29;100.00
54600;BME280;40500;51.084;16.958;2023-02-19T08:44:23;100075.58;;;3.28;100.00
54600;BME280;40500;51.084;16.958;2023-02-19T08:46:54;100084.25;;;3.31;100.00
54600;BME280;40500;51.084;16.958;2023-02-19T08:49:28;100082.36;;;3.31;100.00
54600;BME280;40500;51.084;16.958;2023-02-19T08:52:04;100087.55;;;3.33;100.00
54600;BME280;40500;51.084;16.958;2023-02-19T08:54:36;100092.05;;;3.32;100.00
54600;BME280;40500;51.084;16.958;2023-02-19T08:57:14;100097.89;;;3.27;100.00
54600;BME280;40500;51.084;16.958;2023-02-19T08:59:49;100097.67;;;3.22;100.00
54600;BME280;40500;51.084;16.958;2023-02-19T09:02:20;100102.45;;;3.14;100.00
54600;BME280;40500;51.084;16.958;2023-02-19T09:04:56;100111.42;;;3.11;100.00
54600;BME280;40500;51.084;16.958;2023-02-19T09:07:26;100119.83;;;3.05;100.00
54600;BME280;40500;51.084;16.958;2023-02-19T09:09:57;100126.55;;;3.02;100.00
54600;BME280;40500;51.084;16.958;2023-02-19T09:12:27;100130.04;;;3.04;100.00
54600;BME280;40500;51.084;16.958;2023-02-19T09:14:58;100132.45;;;3.04;100.00
54600;BME280;40500;51.084;16.958;2023-02-19T09:17:28;100138.35;;;3.06;100.00
54600;BME280;40500;51.084;16.958;2023-02-19T09:19:59;100137.70;;;3.10;100.00
54600;BME280;40500;51.084;16.958;2023-02-19T09:22:29;100141.83;;;3.07;100.00
54600;BME280;40500;51.084;16.958;2023-02-19T09:25:00;100146.36;;;3.11;100.00
54600;BME280;40500;51.084;16.958;2023-02-19T09:27:31;100150.08;;;3.19;100.00
54600;BME280;40500;51.084;16.958;2023-02-19T09:30:02;100151.71;;;3.27;100.00
54600;BME280;40500;51.084;16.958;2023-02-19T09:32:33;100155.58;;;3.33;100.00
54600;BME280;40500;51.084;16.958;2023-02-19T09:35:04;100157.54;;;3.40;100.00
54600;BME280;40500;51.084;16.958;2023-02-19T09:37:34;100164.55;;;3.49;100.00
54600;BME280;40500;51.084;16.958;2023-02-19T09:40:06;100169.27;;;3.53;100.00
54600;BME280;40500;51.084;16.958;2023-02-19T09:42:51;100171.20;;;3.58;100.00
54600;BME280;40500;51.084;16.958;2023-02-19T09:45:24;100171.60;;;3.64;100.00
54600;BME280;40500;51.084;16.958;2023-02-19T09:47:58;100177.38;;;3.71;100.00
54600;BME280;40500;51.084;16.958;2023-02-19T09:50:34;100178.84;;;3.80;100.00
54600;BME280;40500;51.084;16.958;2023-02-19T09:53:13;100174.77;;;3.92;100.00
54600;BME280;40500;51.084;16.958;2023-02-19T09:55:45;100179.90;;;4.06;100.00
54600;BME280;40500;51.084;16.958;2023-02-19T09:58:23;100187.02;;;4.10;100.00
54600;BME280;40500;51.084;16.958;2023-02-19T10:00:57;100189.47;;;4.13;100.00
54600;BME280;40500;51.084;16.958;2023-02-19T10:03:31;100196.79;;;4.18;100.00
54600;BME280;40500;51.084;16.958;2023-02-19T10:06:06;100199.40;;;4.20;100.00
54600;BME280;40500;51.084;16.958;2023-02-19T10:08:46;100207.20;;;4.23;100.00
54600;BME280;40500;51.084;16.958;2023-02-19T10:11:17;100210.04;;;4.28;100.00
54600;BME280;40500;51.084;16.958;2023-02-19T10:13:52;100213.89;;;4.35;100.00
54600;BME280;40500;51.084;16.958;2023-02-19T10:16:34;100222.78;;;4.45;100.00
54600;BME280;40500;51.084;16.958;2023-02-19T10:19:07;100226.11;;;4.50;100.00
54600;BME280;40500;51.084;16.958;2023-02-19T10:21:38;100233.77;;;4.52;100.00
54600;BME280;40500;51.084;16.958;2023-02-19T10:24:15;100238.95;;;4.50;100.00
54600;BME280;40500;51.084;16.958;2023-02-19T10:26:47;100242.91;;;4.47;100.00
54600;BME280;40500;51.084;16.958;2023-02-19T10:29:19;100243.25;;;4.47;100.00
54600;BME280;40500;51.084;16.958;2023-02-19T10:32:15;100250.07;;;4.54;100.00
54600;BME280;40500;51.084;16.958;2023-02-19T10:35:07;100255.80;;;4.57;100.00
54600;BME280;40500;51.084;16.958;2023-02-19T10:37:43;100262.42;;;4.60;100.00
54600;BME280;40500;51.084;16.958;2023-02-19T10:40:20;100261.54;;;4.59;100.00
54600;BME280;40500;51.084;16.958;2023-02-19T10:42:54;100265.31;;;4.52;100.00
54600;BME280;40500;51.084;16.958;2023-02-19T10:45:32;100264.95;;;4.50;100.00
54600;BME280;40500;51.084;16.958;2023-02-19T10:48:03;100267.52;;;4.46;100.00
54600;BME280;40500;51.084;16.958;2023-02-19T10:50:38;100265.58;;;4.40;100.00
54600;BME280;40500;51.084;16.958;2023-02-19T10:53:21;100264.20;;;4.41;100.00
54600;BME280;40500;51.084;16.958;2023-02-19T10:56:07;100271.39;;;4.51;100.00
54600;BME280;40500;51.084;16.958;2023-02-19T10:58:38;100279.59;;;4.60;100.00
54600;BME280;40500;51.084;16.958;2023-02-19T11:01:19;100278.91;;;4.63;100.00
54600;BME280;40500;51.084;16.958;2023-02-19T11:03:51;100282.23;;;4.68;100.00
54600;BME280;40500;51.084;16.958;2023-02-19T11:06:26;100286.64;;;4.77;100.00
54600;BME280;40500;51.084;16.958;2023-02-19T11:08:58;100287.67;;;4.79;100.00
54600;BME280;40500;51.084;16.958;2023-02-19T11:11:32;100291.67;;;4.83;100.00
54600;BME280;40500;51.084;16.958;2023-02-19T11:14:11;100292.23;;;4.86;100.00
54600;BME280;40500;51.084;16.958;2023-02-19T11:16:45;100297.09;;;4.87;100.00
54600;BME280;40500;51.084;16.958;2023-02-19T11:19:38;100297.95;;;4.85;100.00
54600;BME280;40500;51.084;16.958;2023-02-19T11:22:30;100295.05;;;4.94;100.00
54600;BME280;40500;51.084;16.958;2023-02-19T11:25:05;100293.48;;;4.94;100.00
54600;BME280;40500;51.084;16.958;2023-02-19T11:27:54;100298.67;;;4.90;100.00
54600;BME280;40500;51.084;16.958;2023-02-19T11:30:38;100303.16;;;4.87;100.00
54600;BME280;40500;51.084;16.958;2023-02-19T11:33:35;100298.07;;;4.78;100.00
54600;BME280;40500;51.084;16.958;2023-02-19T11:36:28;100296.96;;;4.66;100.00
54600;BME280;40500;51.084;16.958;2023-02-19T11:39:14;100297.14;;;4.65;100.00
54600;BME280;40500;51.084;16.958;2023-02-19T11:42:12;100301.28;;;4.63;100.00
54600;BME280;40500;51.084;16.958;2023-02-19T11:44:55;100297.98;;;4.61;100.00
54600;BME280;40500;51.084;16.958;2023-02-19T11:50:51;100303.30;;;4.54;100.00
54600;BME280;40500;51.084;16.958;2023-02-19T11:53:26;100305.75;;;4.57;100.00
54600;BME280;40500;51.084;16.958;2023-02-19T11:56:18;100308.52;;;4.57;100.00
54600;BME280;40500;51.084;16.958;2023-02-19T11:59:08;100305.95;;;4.59;100.00
54600;BME280;40500;51.084;16.958;2023-02-19T12:02:05;100306.04;;;4.75;100.00
54600;BME280;40500;51.084;16.958;2023-02-19T12:04:53;100309.98;;;4.96;100.00
54600;BME280;40500;51.084;16.958;2023-02-19T12:07:57;100313.10;;;4.94;100.00
54600;BME280;40500;51.084;16.958;2023-02-19T12:10:41;100323.60;;;4.82;100.00
54600;BME280;40500;51.084;16.958;2023-02-19T12:13:26;100332.05;;;4.73;100.00
54600;BME280;40500;51.084;16.958;2023-02-19T12:16:14;100337.95;;;4.72;100.00
54600;BME280;40500;51.084;16.958;2023-02-19T12:19:04;100346.04;;;4.65;100.00
54600;BME280;40500;51.084;16.958;2023-02-19T12:21:49;100350.13;;;4.80;100.00
54600;BME280;40500;51.084;16.958;2023-02-19T12:24:39;100349.59;;;5.06;100.00
54600;BME280;40500;51.084;16.958;2023-02-19T12:27:22;100350.52;;;5.15;100.00
54600;BME280;40500;51.084;16.958;2023-02-19T12:30:05;100353.45;;;5.11;100.00
54600;BME280;40500;51.084;16.958;2023-02-19T12:33:09;100357.27;;;5.11;100.00
54600;BME280;40500;51.084;16.958;2023-02-19T12:35:57;100360.59;;;5.13;100.00
54600;BME280;40500;51.084;16.958;2023-02-19T12:38:38;100357.58;;;5.36;100.00
54600;BME280;40500;51.084;16.958;2023-02-19T12:41:28;100361.17;;;5.71;100.00
54600;BME280;40500;51.084;16.958;2023-02-19T12:44:08;100350.34;;;5.98;100.00
54600;BME280;40500;51.084;16.958;2023-02-19T12:46:47;100362.54;;;6.16;100.00
54600;BME280;40500;51.084;16.958;2023-02-19T12:49:24;100366.03;;;6.27;100.00
54600;BME280;40500;51.084;16.958;2023-02-19T12:51:57;100371.77;;;6.37;100.00
54600;BME280;40500;51.084;16.958;2023-02-19T12:54:42;100359.95;;;6.61;100.00
54600;BME280;40500;51.084;16.958;2023-02-19T12:57:39;100364.25;;;7.55;100.00
54600;BME280;40500;51.084;16.958;2023-02-19T13:00:28;100371.58;;;8.22;100.00
54600;BME280;40500;51.084;16.958;2023-02-19T13:03:04;100378.90;;;8.20;100.00
54600;BME280;40500;51.084;16.958;2023-02-19T13:05:43;100378.71;;;7.94;100.00
54600;BME280;40500;51.084;16.958;2023-02-19T13:08:20;100391.77;;;7.62;100.00
54600;BME280;40500;51.084;16.958;2023-02-19T13:10:57;100395.16;;;7.40;100.00
54600;BME280;40500;51.084;16.958;2023-02-19T13:13:35;100396.29;;;6.99;100.00
54600;BME280;40500;51.084;16.958;2023-02-19T13:16:18;100401.02;;;6.74;100.00
54600;BME280;40500;51.084;16.958;2023-02-19T13:18:54;100397.71;;;6.64;100.00
54600;BME280;40500;51.084;16.958;2023-02-19T13:21:40;100403.98;;;6.53;100.00
54600;BME280;40500;51.084;16.958;2023-02-19T13:24:37;100406.04;;;6.88;100.00
54600;BME280;40500;51.084;16.958;2023-02-19T13:30:35;100403.77;;;6.94;100.00
54600;BME280;40500;51.084;16.958;2023-02-19T13:33:35;100407.27;;;6.54;100.00
54600;BME280;40500;51.084;16.958;2023-02-19T13:36:15;100400.11;;;6.30;100.00
54600;BME280;40500;51.084;16.958;2023-02-19T13:38:57;100402.02;;;6.23;100.00
54600;BME280;40500;51.084;16.958;2023-02-19T13:41:50;100404.83;;;6.81;100.00
54600;BME280;40500;51.084;16.958;2023-02-19T13:44:29;100401.81;;;7.19;100.00